Flight Track Log - Related Links

Times and Time Zones

All times are in EDT time to prevent confusion due to time zone crossing. See the EJM826 flight status page for this flight to view local times or setup timezone preferences in your user account.

Time Position Orientation Groundspeed Altitude Reporting Facility
EDT Latitude Longitude Course Direction KTS MPH feet Rate Location/Type
Sun 08:08:15 PM 38.0978 -85.7186 185° South 241 277 4,800  Level Indianapolis Center
Sun 08:09:16 PM 38.0703 -85.7992 247° West 217 250 9,400 3,902 Climbing Indianapolis Center
Sun 08:10:18 PM 38.0739 -85.8808 273° West 229 264 12,800 2,592 Climbing Indianapolis Center
Sun 08:11:21 PM 38.0653 -85.9722 263° West 273 314 14,800 2,274 Climbing Indianapolis Center
Sun 08:12:22 PM 38.0094 -86.0553 230° Southwest 304 350 17,500 2,557 Climbing Indianapolis Center
Sun 08:13:23 PM 37.9544 -86.1442 232° Southwest 316 364 20,000 2,341 Climbing Indianapolis Center
Sun 08:14:25 PM 37.8992 -86.2356 233° Southwest 323 372 22,300 2,177 Climbing Indianapolis Center
Sun 08:15:27 PM 37.8303 -86.3197 224° Southwest 339 390 24,500 2,177 Climbing Indianapolis Center
Sun 08:16:29 PM 37.7483 -86.4189 224° Southwest 349 402 26,800 2,129 Climbing Indianapolis Center
Sun 08:17:31 PM 37.6731 -86.5086 223° Southwest 365 420 28,900 1,548 Climbing Indianapolis Center
Sun 08:18:33 PM 37.5914 -86.6058 223° Southwest 376 433 30,000 968 Climbing Indianapolis Center
Sun 08:19:35 PM 37.5100 -86.7017 223° Southwest 407 468 30,900 1,073 Climbing Indianapolis Center
Sun 08:20:36 PM 37.4242 -86.8042 223° Southwest 419 482 32,200 1,463 Climbing Indianapolis Center
Sun 08:21:38 PM 37.3356 -86.9092 223° Southwest 431 496 33,900 871 Climbing Indianapolis Center
Sun 08:22:40 PM 37.2458 -87.0142 223° Southwest 436 502 34,000 581 Climbing Indianapolis Center
Sun 08:23:42 PM 37.1389 -87.1403 223° Southwest 447 514 35,100 1,252 Climbing Indianapolis Center
Sun 08:24:59 PM 37.0350 -87.2644 224° Southwest 445 512 36,900 1,445 Climbing Memphis Center
Sun 08:25:59 PM 36.9478 -87.3664 223° Southwest 438 504 38,400 1,513 Climbing Memphis Center
Sun 08:26:58 PM 36.8606 -87.4683 223° Southwest 433 498 39,900 1,350 Climbing Memphis Center
Sun 08:27:59 PM 36.7753 -87.5672 223° Southwest 433 498 41,100 1,150 Climbing Memphis Center
Sun 08:28:58 PM 36.6839 -87.6739 223° Southwest 433 498 42,200 950 Climbing Memphis Center
Sun 08:29:59 PM 36.5986 -87.7697 222° Southwest 427 491 43,000 397 Climbing Memphis Center
Sun 08:30:59 PM 36.5131 -87.8706 223° Southwest 422 486 43,000  Level Memphis Center
Sun 08:31:58 PM 36.4253 -87.9686 222° Southwest 422 486 43,000  Level Memphis Center
Sun 08:32:59 PM 36.3356 -88.0692 222° Southwest 434 499 43,000  Level Memphis Center
Sun 08:33:58 PM 36.2497 -88.1642 222° Southwest 434 499 43,000  Level Memphis Center
Sun 08:34:59 PM 36.1636 -88.2592 222° Southwest 429 494 43,000  Level Memphis Center
Sun 08:35:59 PM 36.0797 -88.3564 223° Southwest 429 494 43,000  Level Memphis Center
Sun 08:36:59 PM 35.9939 -88.4508 222° Southwest 423 487 43,000  Level Memphis Center
Sun 08:37:59 PM 35.9075 -88.5478 222° Southwest 423 487 43,000  Level Memphis Center
Sun 08:38:58 PM 35.8214 -88.6442 222° Southwest 423 487 43,000  Level Memphis Center
Sun 08:39:59 PM 35.7414 -88.7303 221° Southwest 423 487 43,000  Level Memphis Center
Sun 08:40:59 PM 35.6592 -88.8317 225° Southwest 423 487 43,000  Level Memphis Center
Sun 08:41:59 PM 35.5686 -88.9253 220° Southwest 423 487 43,000  Level Memphis Center
Sun 08:42:59 PM 35.4842 -89.0236 223° Southwest 423 487 43,000  Level Memphis Center
Sun 08:43:59 PM 35.3933 -89.1167 220° Southwest 423 487 43,000  Level Memphis Center
Sun 08:44:59 PM 35.3067 -89.2147 223° Southwest 423 487 43,000  Level Memphis Center
Sun 08:45:59 PM 35.2136 -89.3175 222° Southwest 423 487 43,000  Level Memphis Center
Sun 08:46:59 PM 35.1267 -89.4100 221° Southwest 423 487 43,000  Level Memphis Center
Sun 08:47:59 PM 35.0397 -89.5050 222° Southwest 418 481 43,000  Level Memphis Center
Sun 08:48:59 PM 34.9569 -89.5944 222° Southwest 413 475 43,000  Level Memphis Center
Sun 08:49:58 PM 34.8719 -89.6839 221° Southwest 421 484 43,000  Level Memphis Center
Sun 08:50:59 PM 34.7847 -89.7756 221° Southwest 421 484 43,000  Level Memphis Center
Sun 08:51:59 PM 34.6956 -89.8772 223° Southwest 431 496 43,000  Level Memphis Center
Sun 08:52:59 PM 34.6144 -89.9661 222° Southwest 418 481 43,000  Level Memphis Center
Sun 08:53:59 PM 34.5272 -90.0597 221° Southwest 413 475 43,000  Level Memphis Center
Sun 08:54:58 PM 34.4333 -90.1608 222° Southwest 413 475 43,000  Level Memphis Center
Sun 08:55:59 PM 34.3439 -90.2539 221° Southwest 419 482 43,000  Level Memphis Center
Sun 08:56:59 PM 34.2561 -90.3497 222° Southwest 419 482 43,000  Level Memphis Center
Sun 08:57:58 PM 34.1686 -90.4400 220° Southwest 419 482 43,000  Level Memphis Center
Sun 08:58:58 PM 34.0786 -90.5328 221° Southwest 419 482 43,000  Level Memphis Center
Sun 08:59:59 PM 33.9908 -90.6253 221° Southwest 419 482 43,000  Level Memphis Center
Sun 09:00:59 PM 33.9031 -90.7200 222° Southwest 419 482 43,000  Level Memphis Center
Sun 09:01:59 PM 33.8256 -90.8022 221° Southwest 419 482 43,000  Level Memphis Center
Sun 09:02:59 PM 33.7375 -90.8917 220° Southwest 412 474 43,000  Level Memphis Center
Sun 09:03:58 PM 33.6494 -90.9836 221° Southwest 417 480 43,000  Level Memphis Center
Sun 09:04:59 PM 33.5611 -91.0753 221° Southwest 417 480 43,000  Level Memphis Center
Sun 09:07:04 PM 33.3803 -91.2614 221° Southwest 420 483 43,000  Level Fort Worth Center
Sun 09:08:06 PM 33.2914 -91.3525 221° Southwest 420 483 43,000  Level Fort Worth Center
Sun 09:09:07 PM 33.2017 -91.4439 220° Southwest 423 487 43,000  Level Fort Worth Center
Sun 09:10:09 PM 33.0953 -91.5528 221° Southwest 422 486 43,000  Level Fort Worth Center
Sun 09:11:10 PM 33.0069 -91.6425 220° Southwest 420 483 43,000  Level Fort Worth Center
Sun 09:12:12 PM 32.9172 -91.7322 220° Southwest 421 484 43,000  Level Fort Worth Center
Sun 09:13:14 PM 32.8297 -91.8211 220° Southwest 420 483 43,000  Level Fort Worth Center
Sun 09:14:15 PM 32.7400 -91.9103 220° Southwest 421 484 43,000  Level Fort Worth Center
Sun 09:15:17 PM 32.6489 -92.0025 220° Southwest 425 489 43,000  Level Fort Worth Center
Sun 09:16:18 PM 32.5622 -92.0933 221° Southwest 419 482 43,000  Level Fort Worth Center
Sun 09:17:20 PM 32.4528 -92.2000 219° Southwest 424 488 43,000  Level Fort Worth Center
Sun 09:18:21 PM 32.3622 -92.2903 220° Southwest 426 490 43,000  Level Fort Worth Center
Sun 09:19:09 PM 32.3022 -92.3483 219° Southwest 423 487 43,000  Level Houston Center
Sun 09:20:10 PM 32.2144 -92.4389 221° Southwest 419 482 43,000  Level Houston Center
Sun 09:21:11 PM 32.1064 -92.5436 219° Southwest 419 482 43,000  Level Houston Center
Sun 09:22:13 PM 32.0178 -92.6336 221° Southwest 421 484 43,000  Level Houston Center
Sun 09:23:14 PM 31.9347 -92.7269 224° Southwest 412 474 43,000  Level Houston Center
Sun 09:24:15 PM 31.8575 -92.8250 227° Southwest 410 472 43,000 -49 Level Houston Center
Sun 09:25:16 PM 31.7806 -92.9236 227° Southwest 410 472 42,900  Descending Houston Center
Sun 09:26:17 PM 31.7025 -93.0203 227° Southwest 410 472 43,000 49 Climbing Houston Center
Sun 09:27:19 PM 31.6269 -93.1172 228° Southwest 404 465 43,000  Level Houston Center
Sun 09:28:20 PM 31.5539 -93.2100 227° Southwest 391 450 43,000  Level Houston Center
Sun 09:29:21 PM 31.4731 -93.3114 227° Southwest 388 447 43,000  Level Houston Center
Sun 09:30:22 PM 31.3997 -93.4042 227° Southwest 389 448 43,000  Level Houston Center
Sun 09:31:23 PM 31.3258 -93.4969 227° Southwest 391 450 43,000 -1,082 Level Houston Center
Sun 09:32:24 PM 31.2439 -93.5981 227° Southwest 392 451 40,800 -2,213 Descending Houston Center
Sun 09:33:25 PM 31.1700 -93.6900 227° Southwest 390 449 38,500 -2,262 Descending Houston Center
Sun 09:34:26 PM 31.0936 -93.7844 227° Southwest 399 459 36,200 -2,244 Descending Houston Center
Sun 09:35:28 PM 31.0183 -93.8789 227° Southwest 400 460 33,900 -2,244 Descending Houston Center
Sun 09:36:29 PM 30.9378 -93.9778 226° Southwest 420 483 31,600 -2,262 Descending Houston Center
Sun 09:37:30 PM 30.8547 -94.0794 226° Southwest 433 498 29,300 -2,311 Descending Houston Center
Sun 09:38:31 PM 30.7731 -94.1789 226° Southwest 430 495 26,900 -2,557 Descending Houston Center
Sun 09:39:32 PM 30.6753 -94.2978 226° Southwest 427 491 24,100 -2,579 Descending Houston Center
Sun 09:40:32 PM 30.5942 -94.3950 226° Southwest 428 493 21,700 -2,361 Descending Houston Center
Sun 09:40:33 PM 30.5922 -94.3975 228° Southwest 429 494 21,700 -2,526 Level Houston Center
Sun 09:40:51 PM 30.5678 -94.4250 224° Southwest 430 495 20,900 -2,459 Descending Houston Center
Sun 09:41:34 PM 30.5072 -94.5011 227° Southwest 427 491 19,200 -2,333 Descending Houston Center
Sun 09:41:45 PM 30.4928 -94.5175 224° Southwest 428 493 18,800 -2,164 Descending Houston Center
Sun 09:42:35 PM 30.4417 -94.6036 235° Southwest 410 472 17,000 -2,262 Descending Houston Center
Sun 09:42:46 PM 30.4256 -94.6256 230° Southwest 401 461 16,500 -2,361 Descending Houston Center
Sun 09:43:36 PM 30.3744 -94.7042 233° Southwest 398 458 14,600 -2,507 Descending Houston Center
Sun 09:43:53 PM 30.3486 -94.7419 232° Southwest 395 455 13,700 -1,574 Descending Houston Center
Sun 09:44:37 PM 30.3092 -94.8058 234° Southwest 394 453 13,000 -689 Descending Houston Center
Sun 09:44:54 PM 30.2825 -94.8425 230° Southwest 392 451 13,000  Level Houston Center
Sun 09:45:38 PM 30.2444 -94.9061 235° Southwest 391 450 13,000  Level Houston Center
Sun 09:45:54 PM 30.2183 -94.9425 230° Southwest 389 448 13,000 -590 Level Houston Center
Sun 09:46:39 PM 30.1722 -94.9872 220° Southwest 362 417 12,400 -885 Descending Houston Center
Sun 09:46:55 PM 30.1386 -95.0081 208° Southwest 348 400 12,100 -984 Descending Houston Center
Sun 09:47:40 PM 30.0858 -95.0453 211° Southwest 358 412 11,400 -1,377 Descending Houston Center
Sun 09:47:56 PM 30.0536 -95.0669 210° Southwest 353 406 10,700 -1,377 Descending Houston Center
Sun 09:48:41 PM 30.0028 -95.1003 210° Southwest 346 398 10,000 -689 Descending Houston Center
Sun 09:48:57 PM 29.9644 -95.1236 208° Southwest 342 394 10,000  Level Houston Center
Sun 09:49:57 PM 29.8758 -95.1636 201° Southwest 353 406 10,000  Level Houston Center
Sun 09:50:43 PM 29.8064 -95.1800 192° South 349 402 10,000 -98 Level Houston Center
Sun 09:50:58 PM 29.7811 -95.1847 189° South 334 384 9,900 -1,180 Descending Houston Center
Sun 09:51:44 PM 29.7233 -95.1992 192° South 316 364 8,800 -1,574 Descending Houston Center
Sun 09:51:59 PM 29.7011 -95.2042 191° South 296 341 8,300 -1,967 Descending Houston Center
Sun 09:52:45 PM 29.6481 -95.2183 193° South 291 335 6,800 -2,066 Descending Houston Center
Sun 09:53:00 PM 29.6250 -95.2231 190° South 267 307 6,200 -787 Descending Houston Center
Sun 09:53:46 PM 29.5817 -95.2369 196° South 267 307 6,000 -667 Descending Houston Center
Sun 09:53:54 PM 29.5706 -95.2464 216° Southwest 208 239 5,600 -2,754 Descending Houston Center
Sun 09:54:47 PM 29.5472 -95.2867 236° Southwest 220 253 3,200 -3,049 Descending Houston Center
Sun 09:54:55 PM 29.5506 -95.3017 284° West 210 242 2,500 -1,574 Descending Houston Center
Sun 09:55:48 PM 29.5806 -95.3289 322° Northwest 186 214 1,600 -984 Descending Houston Center
Sun 09:55:56 PM 29.5928 -95.3278 North 132 152 1,500 -689 Descending Houston Center
Sun 09:56:49 PM 29.6131 -95.3142 30° Northeast 147 169 900 -800 Descending Houston Center
Sun 09:56:56 PM 29.6183 -95.3081 45° Northeast 110 127 700 -689 Descending Houston Center
Sun 09:57:50 PM 29.6356 -95.2914 40° Northeast 121 139 200 -556 Descending Houston Center

Login

Don't have an account? Register now (free) for customized features, flight alerts, and more!